Aérodrome :
LOGIN :

S'inscrire | Disclaimer

   EN    FR    IT 

 










Légende :    VFR   VFR Marginal   IFR   IFR Intensif   IFR Très Intensif
Visi : 
Plafond : 
>= 8 km
>= 3000ft
5 à 8 km
1000 à 3000 ft
1500m à 5 km
500 à 1000 ft
800 à 1500m
200 à 500 ft
< 800m
< 200 ft
Symboles :   Orages  Brouillard  Fortes neiges  Fortes précipitations  Vent > 20 kt
SIGMETs :   Divers  Orages  Givrage  Turbulence  Onde Orograph.  Cendres Volcan.






- Altitude de l'aérodrome : 427 ft
- Code IATA : KBP


UKBB - Boryspil'

DERNIER METAR :
  • 170100Z 20008MPS CAVOK 02/M02 Q1025 R88/D TEMPO 20009G14MPS

METARs EXPIRÉS :
  • 170030Z 20009MPS CAVOK 02/M02 Q1025 R88/D TEMPO 20009G14MPS
  • 170000Z 20008MPS CAVOK 02/M02 Q1025 R88/CLRD// TEMPO 20009G14MPS
  • 162330Z 19008MPS CAVOK 02/M03 Q1025 R88/D TEMPO 20009G14MPS
  • 162300Z 20007MPS CAVOK 02/M03 Q1026 R88/CLRD// NOSIG
  • 162230Z 20006MPS CAVOK 02/M02 Q1026 R88/D NOSIG

TAF TAF UKBB
Valide du 17 à 00h jusqu'au 18 à 00h UTC


162302Z 1700/1724 18007G12MPS 9999 BKN020 TX07/1712Z TN02/1705Z
TEMPO 1700/1706 20009G14MPS BKN006
PROB40
TEMPO 1700/1706 18010G16MPS
TEMPO 1706/1715 20011G17MPS



MET'MAP, la Météo Aéronautique d'un coup d'oeil ! - Copyright ORBIFLY Décembre 2007 - Disclaimer

ORBIFLY MET'MAP TEAM :

Programmation & Développement : Alexandra Zaïnal
Sur une idée originale de : Baudouin d'Aumeries
Assistance à la programmation : Marc-Olivier Méhu
Soutien technique & logistique : Manuel Goepfert

Contact : metmap@orbifly.com




SOURCES & CREDITS :

   NOAA